Time;durP1;ratioP1;P1;durP2;ratioP2;P2;SDS_P1;SDS_P2;PMS_P1;PMS_P2;Temp;Humidity;BMP_temperature;BMP_pressure;BME280_temperature;BME280_humidity;BME280_pressure;Samples;Min_cycle;Max_cycle;Signal;HPM_P1;HPM_P2
2022/04/26 03:37:23;;;;;;;11.90;7.03;;;;;;;6.66;80.64;101536.72;5009453;28;20036;-67
2022/04/26 03:39:49;;;;;;;9.55;6.82;;;;;;;6.63;81.68;101531.72;5008305;28;20030;-68
2022/04/26 03:42:14;;;;;;;12.60;7.57;;;;;;;6.60;81.68;101537.06;5009287;28;20036;-65
2022/04/26 03:44:40;;;;;;;11.00;7.07;;;;;;;6.61;81.49;101534.38;5008238;28;20108;-66
2022/04/26 03:47:06;;;;;;;13.93;8.00;;;;;;;6.60;81.57;101542.22;5008545;28;20029;-67
2022/04/26 03:49:32;;;;;;;10.95;7.10;;;;;;;6.57;82.58;101542.38;5023144;28;20034;-66
2022/04/26 03:51:57;;;;;;;11.27;6.60;;;;;;;6.58;82.54;101544.03;5008558;28;20411;-68
2022/04/26 03:54:24;;;;;;;14.00;7.10;;;;;;;6.57;81.71;101547.53;5008686;28;20018;-67
2022/04/26 03:56:50;;;;;;;11.32;6.93;;;;;;;6.60;82.55;101547.38;5007430;28;20496;-66
2022/04/26 03:59:16;;;;;;;10.07;6.90;;;;;;;6.54;83.17;101538.22;5008573;28;20652;-66
2022/04/26 04:01:41;;;;;;;11.25;7.85;;;;;;;6.54;82.79;101533.06;5007523;28;20041;-66
2022/04/26 04:04:07;;;;;;;11.13;7.07;;;;;;;6.53;82.57;101535.69;5007893;28;20466;-67
2022/04/26 04:06:32;;;;;;;10.20;7.25;;;;;;;6.51;82.88;101532.38;5008101;28;20029;-66
2022/04/26 04:08:58;;;;;;;9.77;6.95;;;;;;;6.61;83.05;101543.88;5008075;28;20053;-67
2022/04/26 04:11:23;;;;;;;10.95;7.18;;;;;;;6.57;83.56;101544.94;5007069;28;20033;-67
2022/04/26 04:13:49;;;;;;;9.43;6.93;;;;;;;6.54;83.23;101542.53;5007817;28;20033;-67
2022/04/26 04:16:15;;;;;;;13.23;8.38;;;;;;;6.56;83.71;101551.00;5021544;28;20022;-68
2022/04/26 04:21:24;;;;;;;10.52;7.20;;;;;;;6.58;83.30;101544.03;5007613;28;20044;-66
2022/04/26 04:23:50;;;;;;;10.20;7.50;;;;;;;6.62;83.14;101551.50;5009120;28;20430;-67
2022/04/26 04:26:15;;;;;;;12.27;8.15;;;;;;;6.62;83.69;101555.84;5008340;28;20026;-67
2022/04/26 04:28:41;;;;;;;10.15;7.05;;;;;;;6.55;83.23;101546.78;5007292;28;20036;-68
2022/04/26 04:31:08;;;;;;;13.07;7.70;;;;;;;6.62;83.25;101550.69;5005444;28;20025;-67
2022/04/26 04:33:33;;;;;;;11.48;7.50;;;;;;;6.61;83.20;101560.16;5005479;28;20041;-68
2022/04/26 04:35:58;;;;;;;11.38;7.93;;;;;;;6.64;83.16;101560.00;5006527;28;20033;-66
2022/04/26 04:38:26;;;;;;;12.40;7.75;;;;;;;6.66;83.80;101567.66;5006690;28;20072;-67
2022/04/26 04:40:52;;;;;;;10.90;8.05;;;;;;;6.63;83.88;101567.81;5007071;28;20079;-67
2022/04/26 04:43:18;;;;;;;14.45;8.02;;;;;;;6.63;83.68;101578.13;5006317;28;20385;-68
2022/04/26 04:45:43;;;;;;;10.75;8.02;;;;;;;6.65;83.73;101579.72;5007180;28;20053;-67
2022/04/26 04:48:09;;;;;;;13.23;8.10;;;;;;;6.63;83.70;101591.00;5007354;28;20555;-67
2022/04/26 04:50:35;;;;;;;12.00;8.32;;;;;;;6.64;83.16;101584.94;5008208;28;20034;-65
2022/04/26 04:53:01;;;;;;;12.60;8.18;;;;;;;6.62;83.58;101592.75;5007991;28;20037;-66
2022/04/26 04:55:27;;;;;;;13.45;9.00;;;;;;;6.64;83.95;101595.25;5008380;28;20046;-67
2022/04/26 04:57:52;;;;;;;12.95;8.57;;;;;;;6.64;83.74;101584.94;5008071;28;20034;-66
2022/04/26 05:00:18;;;;;;;11.98;8.43;;;;;;;6.66;83.63;101596.00;5005932;28;20523;-66
2022/04/26 05:02:44;;;;;;;12.23;8.73;;;;;;;6.63;84.34;101589.25;5007389;28;20489;-65
2022/04/26 05:05:09;;;;;;;17.08;9.07;;;;;;;6.66;84.08;101603.75;5007442;28;20034;-65
2022/04/26 05:07:36;;;;;;;12.60;8.85;;;;;;;6.65;84.42;101602.06;5007763;28;20034;-67
2022/04/26 05:10:02;;;;;;;16.63;9.90;;;;;;;6.60;84.47;101591.19;5007666;28;20078;-67
2022/04/26 05:12:27;;;;;;;13.52;9.80;;;;;;;6.68;84.55;101607.06;5006270;28;20126;-65
2022/04/26 05:14:53;;;;;;;12.25;8.75;;;;;;;6.67;84.76;101620.88;5006564;28;20119;-66
2022/04/26 05:17:18;;;;;;;12.93;9.35;;;;;;;6.64;83.93;101608.13;5007228;28;20116;-66
2022/04/26 05:19:44;;;;;;;15.85;9.73;;;;;;;6.61;84.36;101610.88;5008051;28;20084;-65
2022/04/26 05:22:10;;;;;;;14.15;10.00;;;;;;;6.68;85.23;101621.72;5005677;28;20033;-66
2022/04/26 05:24:54;;;;;;;16.15;9.90;;;;;;;6.67;84.45;101625.19;5007422;28;20022;-66
2022/04/26 05:27:29;;;;;;;15.35;10.85;;;;;;;6.68;85.35;101627.69;5003730;28;20148;-67
2022/04/26 05:29:55;;;;;;;17.20;10.55;;;;;;;6.68;85.65;101632.84;5007703;28;20045;-65
2022/04/26 05:32:22;;;;;;;16.17;11.02;;;;;;;6.60;84.83;101614.38;5007135;28;20036;-67
2022/04/26 05:34:48;;;;;;;16.65;11.13;;;;;;;6.68;85.36;101638.00;5007035;28;20034;-67
2022/04/26 05:37:14;;;;;;;17.10;11.25;;;;;;;6.72;85.51;101633.53;5007213;28;20038;-67
2022/04/26 05:39:39;;;;;;;14.90;11.63;;;;;;;6.72;84.85;101634.34;5007999;28;20026;-65
2022/04/26 05:42:04;;;;;;;14.98;11.45;;;;;;;6.75;85.27;101633.34;5006829;28;20036;-68
2022/04/26 05:44:30;;;;;;;16.20;11.73;;;;;;;6.79;85.05;101630.53;5006533;28;20053;-65
2022/04/26 05:46:55;;;;;;;14.57;11.75;;;;;;;6.77;84.91;101627.22;5007009;28;20030;-66
2022/04/26 05:49:20;;;;;;;17.73;12.20;;;;;;;6.84;84.72;101638.88;5005643;28;20477;-66
2022/04/26 05:51:46;;;;;;;17.55;12.85;;;;;;;6.83;85.44;101629.47;5006946;28;20508;-65
2022/04/26 05:54:11;;;;;;;17.63;12.55;;;;;;;6.93;84.98;101638.34;5006523;28;20022;-65
2022/04/26 05:56:37;;;;;;;16.02;13.23;;;;;;;6.95;84.92;101645.22;5006103;28;20477;-67
2022/04/26 05:59:02;;;;;;;18.85;13.95;;;;;;;6.97;84.36;101639.03;5005979;28;20528;-65
2022/04/26 06:01:27;;;;;;;17.25;13.25;;;;;;;6.98;84.58;101650.19;5006751;28;20036;-65
2022/04/26 06:03:52;;;;;;;17.67;13.68;;;;;;;6.97;84.48;101638.22;5006581;28;20034;-65
2022/04/26 06:06:19;;;;;;;17.80;13.43;;;;;;;6.99;83.78;101651.84;5007017;28;20032;-66
2022/04/26 06:08:44;;;;;;;16.70;13.43;;;;;;;6.96;84.22;101646.88;5007259;28;20041;-65
2022/04/26 06:11:09;;;;;;;18.58;13.90;;;;;;;6.93;84.12;101642.69;5004572;28;20030;-66
2022/04/26 06:13:35;;;;;;;17.65;13.70;;;;;;;7.04;84.84;101652.44;5006453;28;20034;-66
2022/04/26 06:16:00;;;;;;;16.73;13.63;;;;;;;7.03;83.92;101653.34;5006142;28;20030;-67
2022/04/26 06:18:25;;;;;;;20.17;13.98;;;;;;;7.04;83.96;101649.84;5018171;28;20026;-68
2022/04/26 06:20:51;;;;;;;20.27;14.23;;;;;;;7.03;83.53;101653.34;4990858;28;20532;-67
2022/04/26 06:23:16;;;;;;;16.52;13.57;;;;;;;7.03;83.32;101654.19;5006165;28;20038;-67
2022/04/26 06:25:42;;;;;;;17.27;13.50;;;;;;;7.00;83.88;101644.03;5004880;28;20509;-67
2022/04/26 06:28:09;;;;;;;17.27;13.75;;;;;;;7.07;83.89;101654.88;5005302;28;20390;-68
2022/04/26 06:30:37;;;;;;;16.80;13.40;;;;;;;7.04;83.44;101655.00;5005511;28;20037;-67
2022/04/26 06:33:02;;;;;;;17.63;12.60;;;;;;;7.06;83.74;101658.38;5006028;28;20558;-67
2022/04/26 06:35:28;;;;;;;16.42;12.85;;;;;;;7.06;83.87;101655.78;5005407;28;20036;-67
2022/04/26 06:37:53;;;;;;;15.23;12.07;;;;;;;7.09;83.27;101659.00;5006363;28;20038;-68
2022/04/26 06:40:18;;;;;;;17.73;12.95;;;;;;;7.12;83.45;101663.19;5004106;28;20025;-67
2022/04/26 06:42:44;;;;;;;15.65;12.52;;;;;;;7.09;82.36;101665.91;5006393;28;20045;-67
2022/04/26 06:45:09;;;;;;;18.05;12.45;;;;;;;7.14;83.28;101667.34;5004463;28;20133;-68
2022/04/26 06:47:35;;;;;;;17.42;12.63;;;;;;;7.15;82.50;101673.31;5006570;28;20022;-67
2022/04/26 06:50:00;;;;;;;14.95;11.65;;;;;;;7.16;83.01;101675.00;5004737;28;20145;-68
2022/04/26 06:52:25;;;;;;;18.42;12.02;;;;;;;7.19;82.06;101674.84;5005982;28;20117;-67
2022/04/26 06:54:51;;;;;;;16.83;12.25;;;;;;;7.22;83.18;101682.41;5006065;28;20026;-68
2022/04/26 06:57:17;;;;;;;15.35;12.43;;;;;;;7.26;83.01;101681.31;5006419;28;20032;-67
2022/04/26 06:59:42;;;;;;;15.27;10.77;;;;;;;7.27;82.03;101677.81;5007978;28;20065;-67
2022/04/26 07:02:08;;;;;;;15.45;11.65;;;;;;;7.32;82.01;101690.50;5012528;28;20057;-67
2022/04/26 07:04:33;;;;;;;15.60;11.50;;;;;;;7.30;82.33;101682.84;5012112;28;20458;-67
2022/04/26 07:06:59;;;;;;;14.95;10.98;;;;;;;7.35;81.90;101686.00;5013036;28;20026;-67
2022/04/26 07:09:24;;;;;;;15.38;10.75;;;;;;;7.38;81.80;101688.41;5011990;28;20496;-68
2022/04/26 07:11:50;;;;;;;14.70;10.93;;;;;;;7.43;81.98;101693.31;5012576;28;20036;-68
2022/04/26 07:14:16;;;;;;;15.63;11.25;;;;;;;7.46;81.01;101693.16;5012312;28;20033;-67
2022/04/26 07:16:41;;;;;;;15.63;11.32;;;;;;;7.48;81.15;101704.22;5011138;28;20417;-67
2022/04/26 07:19:07;;;;;;;15.38;11.25;;;;;;;7.55;81.57;101702.13;5026814;28;20382;-67
2022/04/26 07:21:32;;;;;;;19.77;11.38;;;;;;;7.55;80.49;101702.13;5012445;28;20033;-67
2022/04/26 07:23:57;;;;;;;15.65;10.55;;;;;;;7.58;81.28;101702.81;5026771;28;20036;-67
2022/04/26 07:26:23;;;;;;;15.60;11.52;;;;;;;7.67;81.73;101711.78;5011992;28;20021;-67
2022/04/26 07:28:48;;;;;;;16.10;10.82;;;;;;;7.69;81.46;101705.63;5012534;28;20033;-67
2022/04/26 07:31:14;;;;;;;15.55;11.68;;;;;;;7.79;81.89;101715.44;5010707;28;20025;-67
2022/04/26 07:36:23;;;;;;;16.00;10.90;;;;;;;7.92;81.84;101712.09;5011727;28;20037;-67
2022/04/26 07:38:50;;;;;;;16.27;10.95;;;;;;;7.93;81.54;101708.59;5012289;28;20053;-67
2022/04/26 07:41:16;;;;;;;17.40;10.73;;;;;;;8.03;80.09;101728.72;5011866;28;20029;-67
2022/04/26 07:43:41;;;;;;;13.93;8.93;;;;;;;8.08;79.55;101716.38;5012072;28;20056;-67
2022/04/26 07:46:07;;;;;;;12.90;8.77;;;;;;;8.12;79.09;101717.88;5010836;28;20018;-67
2022/04/26 07:48:37;;;;;;;12.50;8.55;;;;;;;8.07;78.71;101719.91;5012565;28;20481;-67
2022/04/26 07:51:04;;;;;;;14.25;8.70;;;;;;;8.15;78.14;101722.88;5010131;28;20052;-67
2022/04/26 07:53:29;;;;;;;14.77;8.93;;;;;;;8.16;77.71;101724.56;5011685;28;20033;-66
2022/04/26 07:55:55;;;;;;;13.75;8.38;;;;;;;8.20;77.34;101724.28;5012079;28;20041;-67
2022/04/26 07:58:20;;;;;;;13.27;8.65;;;;;;;8.24;77.91;101728.34;5011850;28;20817;-68
2022/04/26 08:00:45;;;;;;;12.85;8.65;;;;;;;8.29;78.36;101725.50;5012298;28;20469;-67
2022/04/26 08:03:11;;;;;;;11.75;7.68;;;;;;;8.35;76.90;101727.72;5011898;28;20056;-67
2022/04/26 08:05:36;;;;;;;12.57;7.72;;;;;;;8.35;75.48;101719.97;5011449;28;20389;-67
2022/04/26 08:08:02;;;;;;;11.90;7.25;;;;;;;8.49;76.72;101738.16;5011821;28;20454;-67
2022/04/26 08:10:27;;;;;;;12.85;7.15;;;;;;;8.50;76.92;101726.88;5008418;28;20149;-68
2022/04/26 08:12:52;;;;;;;15.68;8.25;;;;;;;8.67;77.32;101740.59;5007246;28;20033;-68
2022/04/26 08:15:19;;;;;;;12.80;7.60;;;;;;;8.76;77.27;101735.69;5008741;28;20087;-67
2022/04/26 08:17:45;;;;;;;13.48;6.57;;;;;;;8.74;73.93;101744.47;5008382;28;20519;-68
2022/04/26 08:20:10;;;;;;;11.48;7.03;;;;;;;8.80;74.96;101746.69;5007581;28;20042;-67
2022/04/26 08:22:37;;;;;;;10.50;6.82;;;;;;;8.85;73.84;101744.66;5006563;28;20034;-67
2022/04/26 08:27:47;;;;;;;10.73;6.70;;;;;;;9.26;74.07;101751.69;5007874;28;20057;-68
2022/04/26 08:30:12;;;;;;;10.02;6.28;;;;;;;9.45;73.85;101749.59;5007251;28;20029;-67
2022/04/26 08:32:45;;;;;;;10.70;6.07;;;;;;;9.54;71.49;101746.47;5022811;28;20133;-69
2022/04/26 08:35:15;;;;;;;9.73;5.85;;;;;;;9.76;72.67;101750.28;5006477;28;20544;-67
2022/04/26 08:37:40;;;;;;;10.52;5.78;;;;;;;9.76;68.62;101750.28;5007595;28;20041;-67
2022/04/26 08:40:07;;;;;;;11.05;5.13;;;;;;;9.84;69.04;101761.81;5008248;28;20034;-67
2022/04/26 08:42:41;;;;;;;12.02;5.32;;;;;;;9.93;70.18;101765.59;5008147;28;20113;-67
2022/04/26 08:45:09;;;;;;;11.27;5.57;;;;;;;9.91;68.01;101759.66;5006674;28;20129;-67
2022/04/26 08:53:04;;;;;;;8.77;5.03;;;;;;;9.77;66.58;101762.31;5006209;28;20101;-67
2022/04/26 08:55:31;;;;;;;10.00;5.13;;;;;;;9.75;65.47;101766.78;5005823;28;20112;-67
2022/04/26 08:57:57;;;;;;;9.60;5.18;;;;;;;9.75;66.25;101766.78;5006280;28;20026;-69
2022/04/26 09:00:22;;;;;;;7.15;4.70;;;;;;;9.84;66.01;101774.78;5006477;28;20351;-68
2022/04/26 09:03:03;;;;;;;7.40;4.63;;;;;;;9.85;64.78;101784.19;5007638;28;20045;-68
2022/04/26 09:05:29;;;;;;;8.68;4.82;;;;;;;9.87;64.25;101791.91;5006124;28;20068;-68
2022/04/26 09:07:54;;;;;;;8.93;5.05;;;;;;;9.88;64.29;101772.00;5006860;28;20029;-68
2022/04/26 09:10:20;;;;;;;8.90;4.78;;;;;;;9.96;63.70;101791.31;5006602;28;20026;-67
2022/04/26 09:13:09;;;;;;;10.02;4.68;;;;;;;10.05;64.93;101792.50;5003902;28;20034;-67
2022/04/26 09:15:44;;;;;;;7.50;4.55;;;;;;;10.19;65.09;101792.41;5006942;28;20571;-67
2022/04/26 09:18:13;;;;;;;9.45;5.00;;;;;;;10.25;63.37;101797.25;5005823;28;20040;-67
2022/04/26 09:20:38;;;;;;;10.20;5.43;;;;;;;10.42;64.49;101801.34;5010720;28;20151;-67
2022/04/26 09:23:14;;;;;;;9.25;5.20;;;;;;;10.47;65.34;101801.88;5004681;28;20490;-67
2022/04/26 09:25:39;;;;;;;10.50;5.45;;;;;;;10.50;63.64;101801.69;5004885;28;20045;-67
2022/04/26 09:28:06;;;;;;;8.73;5.18;;;;;;;10.52;64.31;101796.38;5005872;28;20382;-67
2022/04/26 09:30:31;;;;;;;9.15;5.00;;;;;;;10.54;62.98;101797.94;5004775;28;20141;-67
2022/04/26 09:32:58;;;;;;;7.57;5.07;;;;;;;10.55;62.51;101806.53;5004242;28;20385;-67
2022/04/26 09:35:32;;;;;;;7.82;5.47;;;;;;;10.60;62.44;101807.91;5004989;28;20700;-67
2022/04/26 09:37:58;;;;;;;9.63;4.93;;;;;;;10.67;63.31;101812.69;5007432;28;20076;-67
2022/04/26 09:40:28;;;;;;;11.15;5.70;;;;;;;10.57;61.94;101797.75;5006092;28;20022;-67
2022/04/26 09:42:54;;;;;;;10.90;5.70;;;;;;;10.45;63.20;101808.94;5001176;28;20022;-67
2022/04/26 09:45:20;;;;;;;9.82;5.45;;;;;;;10.53;64.35;101817.03;5004491;28;20075;-67
2022/04/26 09:47:46;;;;;;;10.98;5.40;;;;;;;10.60;62.83;101815.69;5007540;28;20491;-67
2022/04/26 09:50:14;;;;;;;10.63;5.93;;;;;;;10.82;64.81;101812.50;5004281;28;20030;-67
2022/04/26 09:52:40;;;;;;;9.87;5.70;;;;;;;10.90;63.67;101815.44;5005045;28;20137;-67
2022/04/26 09:55:07;;;;;;;10.48;5.53;;;;;;;10.94;61.90;101823.81;5006010;28;20065;-67
2022/04/26 09:57:33;;;;;;;9.88;5.40;;;;;;;10.95;61.52;101816.88;5005099;28;20037;-67
2022/04/26 10:00:09;;;;;;;9.57;5.47;;;;;;;11.09;62.46;101825.41;5005346;28;20076;-67
2022/04/26 10:02:38;;;;;;;9.55;5.78;;;;;;;11.11;61.03;101828.72;5006490;28;20022;-67
2022/04/26 10:05:06;;;;;;;10.10;5.70;;;;;;;11.16;62.53;101826.63;5004951;28;20589;-67
2022/04/26 10:07:36;;;;;;;;;;;;;;;11.29;63.83;101833.59;5002085;28;20030;-67
2022/04/26 10:10:03;;;;;;;8.65;5.68;;;;;;;11.27;61.44;101817.28;5006701;28;19917;-66
2022/04/26 10:12:31;;;;;;;10.10;5.72;;;;;;;11.32;63.69;101815.22;5006662;28;20030;-67
2022/04/26 10:14:57;;;;;;;9.02;5.60;;;;;;;11.37;59.99;101824.34;5005962;28;20033;-68
2022/04/26 10:17:23;;;;;;;9.77;6.00;;;;;;;11.51;62.85;101828.56;5004978;28;20042;-67
2022/04/26 10:19:48;;;;;;;10.30;5.90;;;;;;;11.56;61.28;101826.50;5006690;28;20065;-67
2022/04/26 10:22:17;;;;;;;10.48;6.05;;;;;;;11.54;59.64;101830.97;5006388;28;20034;-67
2022/04/26 10:25:08;;;;;;;8.85;5.95;;;;;;;11.61;61.79;101837.41;5005909;28;20540;-67
2022/04/26 10:27:33;;;;;;;8.85;6.07;;;;;;;11.60;60.07;101838.34;5004749;28;20377;-67
2022/04/26 10:29:59;;;;;;;9.07;5.80;;;;;;;11.56;60.12;101839.50;5006339;28;20034;-67
2022/04/26 10:32:29;;;;;;;9.13;6.18;;;;;;;11.67;61.02;101839.56;5004576;28;20025;-67
2022/04/26 10:34:55;;;;;;;9.75;6.18;;;;;;;11.81;62.03;101842.97;5005743;28;20112;-67
2022/04/26 10:37:20;;;;;;;9.07;6.25;;;;;;;11.82;59.10;101844.69;5005991;28;20212;-67
2022/04/26 10:39:52;;;;;;;8.27;5.70;;;;;;;11.83;58.31;101846.34;5006154;28;20061;-67
2022/04/26 10:42:19;;;;;;;9.10;6.20;;;;;;;11.93;60.23;101837.78;5005464;28;20034;-67
2022/04/26 10:44:48;;;;;;;9.48;6.53;;;;;;;12.05;60.95;101850.84;5005565;28;20049;-67
2022/04/26 10:47:18;;;;;;;9.40;6.43;;;;;;;12.02;59.45;101853.66;5003466;28;20537;-67
2022/04/26 10:49:45;;;;;;;9.88;6.38;;;;;;;11.86;57.56;101846.09;5005371;28;20038;-67
2022/04/26 10:52:22;;;;;;;9.32;6.20;;;;;;;11.79;58.62;101860.44;5005687;28;20030;-67
2022/04/26 10:55:03;;;;;;;10.18;6.30;;;;;;;11.84;58.23;101854.00;5006424;28;20033;-67
2022/04/26 10:57:31;;;;;;;10.95;6.53;;;;;;;11.87;58.73;101858.16;5005835;28;20034;-67
2022/04/26 10:59:59;;;;;;;8.80;6.60;;;;;;;11.95;58.47;101861.88;5005796;28;20033;-70
2022/04/26 11:02:26;;;;;;;;;;;;;;;12.09;59.91;101858.28;5006135;28;20034;-66
2022/04/26 11:04:56;;;;;;;9.52;6.65;;;;;;;12.10;58.68;101859.13;5006307;28;19917;-67
2022/04/26 11:07:25;;;;;;;8.85;6.47;;;;;;;12.18;58.31;101857.66;5005920;28;20093;-67
2022/04/26 11:09:53;;;;;;;9.63;6.50;;;;;;;12.18;56.39;101859.41;5006137;28;20030;-66
2022/04/26 11:12:33;;;;;;;8.23;6.30;;;;;;;12.37;58.77;101856.31;5004980;28;20038;-67
2022/04/26 11:15:01;;;;;;;9.98;6.75;;;;;;;12.23;55.12;101863.34;4986200;28;20062;-67
2022/04/26 11:17:29;;;;;;;8.52;5.90;;;;;;;12.25;54.27;101862.41;5004111;28;20109;-67
2022/04/26 11:19:59;;;;;;;8.13;5.90;;;;;;;12.41;57.60;101870.75;5005087;28;20636;-66
2022/04/26 11:22:27;;;;;;;8.38;6.00;;;;;;;12.41;54.56;101873.38;5005647;28;20033;-67
2022/04/26 11:28:00;;;;;;;8.65;6.30;;;;;;;12.57;55.00;101868.72;5003161;28;20117;-67
2022/04/26 11:30:31;;;;;;;10.68;6.28;;;;;;;12.49;53.31;101866.66;5004674;28;20537;-67
2022/04/26 11:32:59;;;;;;;8.70;5.90;;;;;;;12.63;53.99;101873.47;5002611;28;20034;-67
2022/04/26 11:35:24;;;;;;;8.70;5.50;;;;;;;12.59;52.54;101872.03;5004075;28;20026;-67
2022/04/26 11:37:53;;;;;;;8.63;5.80;;;;;;;12.74;53.95;101870.91;5002179;28;20029;-67
2022/04/26 11:40:26;;;;;;;7.72;5.05;;;;;;;12.65;52.64;101866.34;5000151;28;20046;-67
2022/04/26 11:42:52;;;;;;;7.25;5.55;;;;;;;12.65;53.60;101878.53;4998492;28;20445;-67
2022/04/26 11:45:18;;;;;;;8.60;5.78;;;;;;;12.56;52.69;101876.59;4988970;28;20060;-67
2022/04/26 11:47:50;;;;;;;9.10;5.38;;;;;;;12.72;52.63;101877.16;5007103;28;20788;-67
2022/04/26 11:50:25;;;;;;;8.13;5.43;;;;;;;12.66;52.56;101878.44;5008011;28;20057;-66
2022/04/26 11:52:53;;;;;;;8.23;5.55;;;;;;;12.70;53.35;101869.47;5007921;28;20037;-67
2022/04/26 11:55:25;;;;;;;10.15;5.90;;;;;;;12.82;52.76;101885.94;5008402;28;20026;-67
2022/04/26 11:57:51;;;;;;;7.88;5.18;;;;;;;12.80;49.79;101880.03;5008644;28;20076;-67
2022/04/26 12:00:19;;;;;;;8.07;5.03;;;;;;;12.96;53.15;101879.69;5007143;28;20095;-67
2022/04/26 12:02:47;;;;;;;7.93;4.75;;;;;;;13.03;51.24;101886.13;5022497;28;20477;-67
2022/04/26 12:05:13;;;;;;;7.77;5.07;;;;;;;13.03;48.98;101891.34;5007101;28;20239;-67
2022/04/26 12:07:39;;;;;;;7.40;4.85;;;;;;;13.01;49.63;101893.19;5008117;28;20526;-67
2022/04/26 12:10:27;;;;;;;7.38;4.90;;;;;;;13.16;50.81;101886.84;5007920;28;20079;-67
2022/04/26 12:12:55;;;;;;;8.13;4.68;;;;;;;13.03;48.24;101880.91;5007335;28;20026;-67
2022/04/26 12:15:25;;;;;;;7.37;4.77;;;;;;;13.24;51.57;101879.31;5006923;28;20052;-67
2022/04/26 12:18:08;;;;;;;7.75;4.53;;;;;;;13.26;50.15;101876.59;5005662;28;20415;-68
2022/04/26 12:20:59;;;;;;;7.10;4.30;;;;;;;13.25;50.18;101883.59;5001690;28;20064;-67
2022/04/26 12:23:26;;;;;;;8.00;5.15;;;;;;;13.31;48.60;101889.28;4999702;28;20040;-67
2022/04/26 12:26:05;;;;;;;8.40;5.10;;;;;;;13.46;51.77;101883.72;5007817;28;20040;-69
2022/04/26 12:28:31;;;;;;;8.75;5.10;;;;;;;13.43;50.38;101878.75;5003133;28;20033;-66
2022/04/26 12:30:57;;;;;;;8.90;5.22;;;;;;;13.35;48.96;101890.69;5008330;28;20183;-67
2022/04/26 12:33:30;;;;;;;7.07;5.15;;;;;;;13.36;50.22;101880.19;5007081;28;20022;-67
2022/04/26 12:36:00;;;;;;;8.38;4.90;;;;;;;13.33;49.14;101887.38;5005842;28;20038;-68
2022/04/26 12:38:26;;;;;;;7.20;4.78;;;;;;;13.39;50.28;101877.31;5004209;28;20099;-68
2022/04/26 12:41:05;;;;;;;7.53;4.55;;;;;;;13.47;50.58;101894.97;5007642;28;20481;-66
2022/04/26 12:43:31;;;;;;;8.70;4.57;;;;;;;13.46;50.77;101883.72;5022488;28;20026;-67
2022/04/26 12:46:06;;;;;;;9.23;4.95;;;;;;;13.36;49.82;101874.09;5006309;28;20056;-67
2022/04/26 12:51:20;;;;;;;7.75;4.60;;;;;;;13.41;50.75;101874.59;5005263;28;20036;-67
2022/04/26 12:53:46;;;;;;;8.32;4.85;;;;;;;13.44;51.24;101884.78;5007488;28;20030;-67
2022/04/26 12:56:12;;;;;;;8.13;4.85;;;;;;;13.38;49.45;101882.66;5007757;28;20040;-67
2022/04/26 12:58:42;;;;;;;7.60;4.60;;;;;;;13.40;49.47;101878.16;5006904;28;20025;-66
2022/04/26 13:01:08;;;;;;;6.82;4.65;;;;;;;13.33;49.50;101877.78;5008058;28;20034;-67
2022/04/26 13:03:35;;;;;;;8.20;4.70;;;;;;;13.25;50.31;101865.34;5007993;28;20044;-71
2022/04/26 13:06:09;;;;;;;11.00;5.43;;;;;;;13.18;49.03;101879.75;5007927;28;20033;-71
2022/04/26 13:08:36;;;;;;;8.48;4.80;;;;;;;13.15;50.62;101877.38;5006375;28;20041;-71
2022/04/26 13:11:01;;;;;;;6.97;5.15;;;;;;;13.14;49.89;101877.50;5007189;28;20049;-70
2022/04/26 13:13:27;;;;;;;7.82;4.88;;;;;;;13.09;48.77;101879.63;5007380;28;20060;-70
2022/04/26 13:15:53;;;;;;;7.38;4.90;;;;;;;13.04;49.44;101872.16;5007536;28;20033;-71
2022/04/26 13:18:19;;;;;;;7.50;4.75;;;;;;;13.09;50.28;101877.84;5006672;28;20346;-71
2022/04/26 13:20:45;;;;;;;8.32;4.82;;;;;;;13.08;50.38;101863.16;5007247;28;20076;-71
2022/04/26 13:23:16;;;;;;;6.00;4.38;;;;;;;13.19;50.15;101876.22;5006627;28;20033;-71
2022/04/26 13:25:42;;;;;;;7.03;4.80;;;;;;;13.22;48.54;101875.16;5007732;28;20243;-71
2022/04/26 13:28:08;;;;;;;8.10;4.65;;;;;;;13.26;49.32;101861.81;5007247;28;20029;-71
2022/04/26 13:30:34;;;;;;;6.88;4.55;;;;;;;13.44;49.63;101863.94;5007307;28;20026;-71
2022/04/26 13:33:00;;;;;;;7.25;4.30;;;;;;;13.40;48.95;101868.56;5005936;28;20369;-71
2022/04/26 13:35:25;;;;;;;7.55;4.60;;;;;;;13.50;49.46;101873.88;5007067;28;20366;-71
2022/04/26 13:37:52;;;;;;;8.23;4.90;;;;;;;13.46;48.23;101882.88;5006967;28;20045;-70
2022/04/26 13:40:19;;;;;;;7.75;4.88;;;;;;;13.38;48.11;101882.66;5005853;28;20100;-71
2022/04/26 13:42:45;;;;;;;8.27;4.57;;;;;;;13.40;48.16;101884.19;5006085;28;20095;-70
2022/04/26 13:45:10;;;;;;;8.07;4.43;;;;;;;13.39;48.55;101866.91;5005724;28;20572;-71
2022/04/26 13:47:37;;;;;;;8.05;4.43;;;;;;;13.48;49.47;101875.78;5006853;28;20033;-70
2022/04/26 13:50:05;;;;;;;7.10;4.05;;;;;;;13.61;49.46;101886.09;5005874;28;20381;-71
2022/04/26 13:52:30;;;;;;;6.03;4.05;;;;;;;13.53;46.45;101878.84;5006743;28;20600;-71
2022/04/26 13:54:56;;;;;;;6.60;4.32;;;;;;;13.48;47.08;101878.41;5006414;28;20057;-70
2022/04/26 13:57:21;;;;;;;5.57;3.83;;;;;;;13.46;46.68;101877.66;5006935;28;20025;-71
2022/04/26 13:59:46;;;;;;;7.57;4.05;;;;;;;13.47;47.76;101879.31;5005771;28;20026;-71
2022/04/26 14:02:12;;;;;;;6.97;4.40;;;;;;;13.46;47.26;101877.66;5005269;28;20041;-71
2022/04/26 14:04:38;;;;;;;6.80;4.00;;;;;;;13.43;46.93;101877.94;5006340;28;20022;-71
2022/04/26 14:07:04;;;;;;;8.90;4.60;;;;;;;13.43;48.70;101894.38;5005844;28;20080;-71
2022/04/26 14:09:29;;;;;;;6.65;4.25;;;;;;;13.31;47.62;101876.25;5005321;28;20034;-71
2022/04/26 14:11:55;;;;;;;6.43;4.32;;;;;;;13.41;49.54;101885.00;5006580;28;20033;-71
2022/04/26 14:22:34;;;;;;;7.63;4.10;;;;;;;13.07;48.62;101887.53;5006554;28;20072;-70
2022/04/26 14:25:02;;;;;;;7.60;4.20;;;;;;;13.03;47.64;101880.91;5006069;28;20037;-71
2022/04/26 14:27:28;;;;;;;;;;;;;;;13.22;49.22;101891.63;5006598;28;20029;-72
2022/04/26 14:29:54;;;;;;;6.88;4.40;;;;;;;13.23;49.12;101888.06;5006448;28;19913;-70
2022/04/26 14:32:19;;;;;;;6.57;4.20;;;;;;;13.14;46.92;101896.56;5004581;28;20057;-71
2022/04/26 14:34:46;;;;;;;7.03;4.60;;;;;;;13.31;50.21;101891.91;5006026;28;20095;-71
2022/04/26 14:37:12;;;;;;;6.75;4.40;;;;;;;13.40;49.59;101896.38;5006030;28;20030;-71
2022/04/26 14:39:38;;;;;;;6.55;4.13;;;;;;;13.22;48.65;101890.81;5004044;28;20144;-71
2022/04/26 14:42:04;;;;;;;6.38;4.00;;;;;;;13.18;48.16;101905.78;5004790;28;20564;-71
2022/04/26 14:44:29;;;;;;;7.60;4.32;;;;;;;13.09;47.80;101903.91;5005738;28;20164;-71
2022/04/26 14:46:54;;;;;;;7.72;3.78;;;;;;;13.10;47.67;101897.75;5006284;28;20068;-70
2022/04/26 14:49:20;;;;;;;6.32;3.75;;;;;;;13.00;50.20;101896.75;5005949;28;20030;-71
2022/04/26 14:51:46;;;;;;;7.75;4.32;;;;;;;12.87;48.91;101901.22;5004973;28;20084;-71
2022/04/26 14:54:11;;;;;;;8.32;3.92;;;;;;;12.85;50.81;101908.34;5003428;28;20503;-71
2022/04/26 14:56:37;;;;;;;6.75;4.05;;;;;;;12.93;50.07;101908.59;5006554;28;20442;-70
2022/04/26 14:59:03;;;;;;;5.45;3.95;;;;;;;12.92;49.44;101909.53;5004888;28;20384;-71
2022/04/26 15:01:30;;;;;;;7.55;4.00;;;;;;;12.82;49.63;101909.38;5006032;28;20349;-71
2022/04/26 15:03:58;;;;;;;6.78;3.97;;;;;;;12.90;49.12;101909.66;5006140;28;20529;-72
2022/04/26 15:06:23;;;;;;;6.93;4.18;;;;;;;13.04;51.44;101908.63;5005894;28;20132;-71
2022/04/26 15:11:33;;;;;;;6.57;4.43;;;;;;;13.07;49.61;101913.56;5006531;28;20040;-71
2022/04/26 15:16:46;;;;;;;6.55;4.00;;;;;;;12.90;49.29;101916.59;5004979;28;20084;-70
2022/04/26 15:19:13;;;;;;;6.80;4.30;;;;;;;12.76;49.62;101904.63;5005812;28;20041;-71
2022/04/26 15:21:44;;;;;;;6.90;4.30;;;;;;;12.69;48.40;101913.81;5007862;28;20060;-70
2022/04/26 15:24:10;;;;;;;5.28;3.75;;;;;;;12.60;49.00;101910.09;5008320;28;20512;-71
2022/04/26 15:26:36;;;;;;;6.30;4.07;;;;;;;12.56;49.45;101908.69;5010125;28;20030;-71
2022/04/26 15:29:03;;;;;;;5.60;3.97;;;;;;;12.71;51.20;101917.97;5006523;28;20030;-71
2022/04/26 15:31:28;;;;;;;5.88;3.63;;;;;;;12.66;49.38;101903.63;5004930;28;20679;-71
2022/04/26 15:33:53;;;;;;;5.75;3.80;;;;;;;12.76;49.79;101910.66;5003572;28;20024;-68